Time;durP1;ratioP1;P1;durP2;ratioP2;P2;SDS_P1;SDS_P2;PMS_P1;PMS_P2;Temp;Humidity;BMP_temperature;BMP_pressure;BME280_temperature;BME280_humidity;BME280_pressure;Samples;Min_cycle;Max_cycle;Signal;HPM_P1;HPM_P2
2021/04/08 00:00:16;;;;;;;8.23;5.85;;;;;;;;;;5025649;28;20548;-76
2021/04/08 00:02:43;;;;;;;9.60;6.18;;;;;;;;;;5026315;28;20045;-76
2021/04/08 00:05:11;;;;;;;10.35;7.25;;;;;;;;;;5016288;28;20025;-76
2021/04/08 00:07:37;;;;;;;9.43;6.47;;;;;;;;;;5032466;28;20022;-76
2021/04/08 00:10:03;;;;;;;11.52;6.97;;;;;;;;;;5030660;28;20029;-77
2021/04/08 00:12:29;;;;;;;9.30;6.57;;;;;;;;;;5031932;28;20063;-76
2021/04/08 00:14:54;;;;;;;9.98;7.25;;;;;;;;;;5032888;28;20021;-76
2021/04/08 00:17:19;;;;;;;14.00;7.70;;;;;;;;;;5030370;28;20017;-76
2021/04/08 00:19:45;;;;;;;11.48;6.75;;;;;;;;;;5032451;28;20083;-76
2021/04/08 00:22:10;;;;;;;10.63;6.65;;;;;;;;;;5015394;28;20025;-76
2021/04/08 00:24:36;;;;;;;10.65;6.45;;;;;;;;;;5029814;28;20088;-76
2021/04/08 00:27:01;;;;;;;9.85;5.85;;;;;;;;;;5024776;28;20017;-76
2021/04/08 00:29:27;;;;;;;8.70;5.85;;;;;;;;;;5023046;28;20026;-76
2021/04/08 00:31:52;;;;;;;9.32;5.95;;;;;;;;;;5006330;28;20029;-76
2021/04/08 00:34:18;;;;;;;9.45;6.53;;;;;;;;;;5030182;28;20009;-76
2021/04/08 00:36:43;;;;;;;10.18;6.68;;;;;;;;;;5017510;28;20028;-76
2021/04/08 00:39:08;;;;;;;9.70;5.88;;;;;;;;;;5028206;28;20041;-76
2021/04/08 00:41:35;;;;;;;8.13;5.88;;;;;;;;;;5030353;28;20024;-76
2021/04/08 00:44:00;;;;;;;10.93;6.47;;;;;;;;;;5042094;28;20103;-76
2021/04/08 00:46:26;;;;;;;10.25;6.45;;;;;;;;;;5033068;28;20030;-76
2021/04/08 00:48:51;;;;;;;8.30;5.85;;;;;;;;;;5034057;28;20036;-76
2021/04/08 00:51:17;;;;;;;8.57;5.95;;;;;;;;;;5038424;28;20469;-76
2021/04/08 00:53:42;;;;;;;10.23;6.13;;;;;;;;;;5033155;28;20397;-76
2021/04/08 00:56:08;;;;;;;8.82;5.80;;;;;;;;;;5033394;28;20025;-76
2021/04/08 00:58:35;;;;;;;7.93;5.38;;;;;;;;;;5036189;28;20037;-76
2021/04/08 01:01:01;;;;;;;9.50;5.95;;;;;;;;;;5032938;28;20028;-76
2021/04/08 01:03:27;;;;;;;9.25;5.57;;;;;;;;;;5033198;28;20393;-76
2021/04/08 01:05:52;;;;;;;9.30;5.80;;;;;;;;;;5035087;28;20029;-76
2021/04/08 01:08:18;;;;;;;9.48;5.85;;;;;;;;;;5043297;28;20025;-76
2021/04/08 01:10:44;;;;;;;9.32;5.72;;;;;;;;;;5024250;28;20103;-76
2021/04/08 01:13:13;;;;;;;10.55;5.53;;;;;;;;;;5034686;28;20029;-76
2021/04/08 01:15:39;;;;;;;10.70;6.18;;;;;;;;;;5043991;28;20111;-76
2021/04/08 01:18:09;;;;;;;8.02;5.68;;;;;;;;;;5027384;28;20152;-76
2021/04/08 01:21:00;;;;;;;9.20;5.78;;;;;;;;;;5041959;28;20025;-76
2021/04/08 01:23:34;;;;;;;11.52;6.00;;;;;;;;;;5032321;28;20053;-76
2021/04/08 01:26:05;;;;;;;7.90;5.35;;;;;;;;;;5028166;28;20028;-76
2021/04/08 01:28:36;;;;;;;;;;;;;;;;;;5026683;28;20013;-76
2021/04/08 01:31:05;;;;;;;9.63;5.72;;;;;;;;;;5026604;28;19909;-76
2021/04/08 01:33:36;;;;;;;7.80;5.05;;;;;;;;;;5033563;28;20500;-76
2021/04/08 01:36:05;;;;;;;8.88;5.38;;;;;;;;;;5031303;28;20545;-76
2021/04/08 01:38:56;;;;;;;9.27;6.15;;;;;;;;;;5033075;28;20623;-76
2021/04/08 01:41:23;;;;;;;7.55;5.07;;;;;;;;;;5034098;28;20540;-76
2021/04/08 01:43:50;;;;;;;7.80;5.13;;;;;;;;;;5043133;28;20084;-76
2021/04/08 01:46:19;;;;;;;7.07;5.13;;;;;;;;;;5038470;28;20014;-76
2021/04/08 01:48:48;;;;;;;8.98;5.00;;;;;;;;;;5029432;28;20067;-76
2021/04/08 01:51:14;;;;;;;6.95;4.78;;;;;;;;;;5032560;28;20044;-77
2021/04/08 01:53:44;;;;;;;9.00;5.18;;;;;;;;;;5040915;28;20505;-76
2021/04/08 01:56:11;;;;;;;7.47;4.93;;;;;;;;;;5031300;28;20037;-76
2021/04/08 01:58:36;;;;;;;8.73;5.18;;;;;;;;;;5026761;28;20111;-76
2021/04/08 02:01:03;;;;;;;9.20;5.43;;;;;;;;;;5025927;28;20065;-76
2021/04/08 02:03:30;;;;;;;6.82;4.55;;;;;;;;;;5025379;28;20029;-76
2021/04/08 02:05:56;;;;;;;9.63;5.57;;;;;;;;;;5021524;28;20496;-76
2021/04/08 02:08:23;;;;;;;10.35;5.57;;;;;;;;;;5035821;28;20100;-76
2021/04/08 02:10:49;;;;;;;8.20;5.30;;;;;;;;;;5039587;28;20090;-76
2021/04/08 02:13:15;;;;;;;7.43;5.20;;;;;;;;;;5040985;28;20021;-76
2021/04/08 02:15:43;;;;;;;8.25;5.05;;;;;;;;;;5040615;28;20013;-76
2021/04/08 02:18:15;;;;;;;8.65;5.65;;;;;;;;;;5034868;28;20024;-76
2021/04/08 02:20:42;;;;;;;8.07;5.75;;;;;;;;;;5030463;28;20037;-76
2021/04/08 02:23:08;;;;;;;8.55;4.97;;;;;;;;;;5043661;28;20431;-76
2021/04/08 02:25:37;;;;;;;7.60;5.28;;;;;;;;;;5029927;28;20107;-76
2021/04/08 02:28:05;;;;;;;8.00;4.82;;;;;;;;;;5027734;28;20048;-76
2021/04/08 02:30:31;;;;;;;11.55;5.65;;;;;;;;;;5031373;28;20024;-76
2021/04/08 02:32:57;;;;;;;6.90;5.13;;;;;;;;;;5032084;28;20025;-76
2021/04/08 02:35:22;;;;;;;7.10;4.85;;;;;;;;;;5030852;28;20065;-76
2021/04/08 02:37:51;;;;;;;7.50;5.10;;;;;;;;;;5036368;28;20033;-76
2021/04/08 02:40:21;;;;;;;6.03;4.97;;;;;;;;;;5034760;28;20879;-76
2021/04/08 02:42:48;;;;;;;8.70;5.15;;;;;;;;;;5036238;28;20053;-76
2021/04/08 02:45:13;;;;;;;8.65;4.93;;;;;;;;;;5029938;28;20057;-76
2021/04/08 02:47:39;;;;;;;8.02;5.15;;;;;;;;;;5025050;28;20056;-76
2021/04/08 02:50:07;;;;;;;8.93;5.70;;;;;;;;;;5027779;28;20032;-76
2021/04/08 02:52:41;;;;;;;8.43;5.32;;;;;;;;;;5030763;28;20022;-76
2021/04/08 02:55:22;;;;;;;10.20;5.50;;;;;;;;;;5024007;28;20025;-76
2021/04/08 02:57:58;;;;;;;;;;;;;;;;;;5028828;28;20032;-76
2021/04/08 03:00:28;;;;;;;6.45;4.97;;;;;;;;;;5025208;28;19913;-76
2021/04/08 03:02:58;;;;;;;8.30;5.80;;;;;;;;;;5024419;28;20109;-76
2021/04/08 03:05:25;;;;;;;6.57;4.57;;;;;;;;;;5013345;28;20405;-76
2021/04/08 03:07:53;;;;;;;8.18;5.28;;;;;;;;;;5026036;28;20049;-76
2021/04/08 03:10:19;;;;;;;6.68;5.15;;;;;;;;;;5030484;28;20032;-76
2021/04/08 03:12:49;;;;;;;7.32;5.30;;;;;;;;;;5031745;28;20025;-76
2021/04/08 03:15:23;;;;;;;7.78;5.28;;;;;;;;;;5030294;28;20084;-76
2021/04/08 03:17:51;;;;;;;6.70;4.88;;;;;;;;;;5026719;28;20036;-76
2021/04/08 03:20:17;;;;;;;7.15;4.82;;;;;;;;;;5027448;28;20030;-76
2021/04/08 03:22:44;;;;;;;8.40;5.78;;;;;;;;;;5029997;28;20034;-76
2021/04/08 03:25:10;;;;;;;9.98;5.45;;;;;;;;;;5029360;28;20033;-76
2021/04/08 03:27:38;;;;;;;7.55;4.97;;;;;;;;;;5013875;28;20835;-76
2021/04/08 03:30:09;;;;;;;14.32;5.55;;;;;;;;;;5033368;28;20033;-76
2021/04/08 03:32:34;;;;;;;7.85;5.25;;;;;;;;;;5024823;28;20014;-76
2021/04/08 03:35:00;;;;;;;8.50;5.18;;;;;;;;;;5017424;28;20398;-76
2021/04/08 03:37:25;;;;;;;7.05;5.38;;;;;;;;;;5033443;28;20493;-76
2021/04/08 03:39:51;;;;;;;6.85;4.90;;;;;;;;;;5036205;28;20094;-76
2021/04/08 03:42:17;;;;;;;8.73;6.00;;;;;;;;;;5033108;28;20124;-76
2021/04/08 03:44:43;;;;;;;7.18;4.70;;;;;;;;;;5037562;28;20022;-76
2021/04/08 03:47:09;;;;;;;8.18;4.80;;;;;;;;;;5035997;28;20032;-76
2021/04/08 03:49:35;;;;;;;9.15;5.70;;;;;;;;;;5017952;28;20466;-76
2021/04/08 03:52:06;;;;;;;8.60;4.43;;;;;;;;;;5017504;28;20032;-76
2021/04/08 03:54:32;;;;;;;;;;;;;;;;;;5035486;28;20032;-76
2021/04/08 03:57:00;;;;;;;7.68;4.72;;;;;;;;;;5034467;28;19991;-76
2021/04/08 03:59:26;;;;;;;6.50;4.50;;;;;;;;;;5031270;28;20087;-76
2021/04/08 04:01:53;;;;;;;7.93;4.70;;;;;;;;;;5023734;28;20022;-76
2021/04/08 04:04:20;;;;;;;7.93;4.85;;;;;;;;;;5025177;28;20456;-76
2021/04/08 04:06:51;;;;;;;6.43;4.55;;;;;;;;;;5027265;28;20021;-76
2021/04/08 04:09:17;;;;;;;6.65;4.90;;;;;;;;;;5032341;28;20017;-76
2021/04/08 04:11:44;;;;;;;6.95;4.65;;;;;;;;;;5034273;28;20037;-76
2021/04/08 04:14:15;;;;;;;7.85;5.00;;;;;;;;;;5033935;28;20017;-76
2021/04/08 04:16:47;;;;;;;10.73;5.35;;;;;;;;;;5030995;28;20040;-76
2021/04/08 04:19:13;;;;;;;10.90;5.55;;;;;;;;;;5029529;28;20424;-76
2021/04/08 04:21:39;;;;;;;8.32;5.30;;;;;;;;;;5027384;28;20033;-76
2021/04/08 04:24:05;;;;;;;8.48;5.32;;;;;;;;;;5032489;28;20026;-76
2021/04/08 04:26:31;;;;;;;7.85;5.20;;;;;;;;;;5033714;28;20021;-76
2021/04/08 04:28:56;;;;;;;8.32;5.07;;;;;;;;;;5027063;28;20026;-76
2021/04/08 04:31:22;;;;;;;9.32;5.30;;;;;;;;;;5025838;28;20524;-76
2021/04/08 04:33:47;;;;;;;8.55;4.88;;;;;;;;;;5033317;28;20028;-76
2021/04/08 04:36:13;;;;;;;9.75;5.60;;;;;;;;;;5034031;28;20045;-76
2021/04/08 04:38:38;;;;;;;8.65;4.93;;;;;;;;;;5030989;28;20033;-76
2021/04/08 04:41:04;;;;;;;7.75;5.13;;;;;;;;;;5032648;28;20025;-76
2021/04/08 04:43:29;;;;;;;8.02;4.80;;;;;;;;;;5041910;28;20079;-76
2021/04/08 04:45:55;;;;;;;9.43;5.32;;;;;;;;;;5043526;28;20084;-76
2021/04/08 04:48:20;;;;;;;10.20;5.88;;;;;;;;;;5049670;28;20056;-76
2021/04/08 04:50:46;;;;;;;10.80;5.38;;;;;;;;;;5049339;28;20033;-76
2021/04/08 04:53:11;;;;;;;7.57;5.65;;;;;;;;;;5046739;28;20029;-76
2021/04/08 04:55:37;;;;;;;9.43;5.32;;;;;;;;;;5045015;28;20025;-76
2021/04/08 04:58:02;;;;;;;9.20;5.30;;;;;;;;;;5049420;28;20108;-76
2021/04/08 05:00:28;;;;;;;8.63;5.50;;;;;;;;;;5047202;28;20515;-76
2021/04/08 05:02:53;;;;;;;10.15;5.40;;;;;;;;;;5049026;28;20401;-76
2021/04/08 05:05:18;;;;;;;11.55;5.30;;;;;;;;;;5044939;28;20024;-76
2021/04/08 05:07:44;;;;;;;8.82;5.53;;;;;;;;;;5041446;28;20032;-76
2021/04/08 05:10:10;;;;;;;9.82;5.03;;;;;;;;;;5051499;28;20028;-76
2021/04/08 05:12:36;;;;;;;11.90;5.72;;;;;;;;;;5051454;28;20560;-76
2021/04/08 05:15:02;;;;;;;7.38;5.10;;;;;;;;;;5052221;28;20155;-76
2021/04/08 05:17:28;;;;;;;12.02;6.25;;;;;;;;;;5050841;28;20029;-76
2021/04/08 05:19:55;;;;;;;8.45;5.53;;;;;;;;;;5052069;28;20025;-76
2021/04/08 05:22:20;;;;;;;12.32;6.68;;;;;;;;;;5051312;28;20111;-76
2021/04/08 05:24:46;;;;;;;10.60;6.15;;;;;;;;;;5048435;28;20130;-76
2021/04/08 05:27:12;;;;;;;10.13;6.22;;;;;;;;;;5038080;28;20121;-76
2021/04/08 05:29:37;;;;;;;8.40;5.72;;;;;;;;;;5047202;28;20080;-76
2021/04/08 05:32:03;;;;;;;9.68;6.30;;;;;;;;;;5040612;28;20485;-76
2021/04/08 05:34:30;;;;;;;13.15;7.30;;;;;;;;;;5041711;28;20481;-76
2021/04/08 05:36:56;;;;;;;10.15;6.57;;;;;;;;;;5049873;28;20079;-76
2021/04/08 05:39:21;;;;;;;11.68;6.78;;;;;;;;;;5048752;28;20017;-76
2021/04/08 05:41:47;;;;;;;11.85;7.18;;;;;;;;;;5050439;28;20415;-76
2021/04/08 05:44:12;;;;;;;11.80;7.03;;;;;;;;;;5035432;28;20033;-76
2021/04/08 05:46:38;;;;;;;13.93;7.03;;;;;;;;;;5033372;28;20032;-76
2021/04/08 05:49:03;;;;;;;10.30;6.25;;;;;;;;;;5027288;28;20064;-76
2021/04/08 05:51:29;;;;;;;9.52;6.45;;;;;;;;;;5029351;28;20029;-76
2021/04/08 05:53:54;;;;;;;10.60;6.55;;;;;;;;;;5026760;28;20072;-76
2021/04/08 05:56:20;;;;;;;16.48;7.20;;;;;;;;;;5019527;28;20481;-76
2021/04/08 05:58:45;;;;;;;10.32;6.25;;;;;;;;;;5027865;28;20159;-76
2021/04/08 06:01:11;;;;;;;13.43;6.90;;;;;;;;;;5022545;28;20017;-76
2021/04/08 06:03:37;;;;;;;12.68;6.63;;;;;;;;;;5025043;28;20026;-75
2021/04/08 06:06:02;;;;;;;12.02;6.97;;;;;;;;;;5025662;28;20033;-75
2021/04/08 06:08:28;;;;;;;13.85;7.60;;;;;;;;;;5036213;28;20029;-75
2021/04/08 06:10:53;;;;;;;12.98;6.75;;;;;;;;;;5027276;28;20504;-75
2021/04/08 06:13:19;;;;;;;12.35;7.35;;;;;;;;;;5044703;28;20055;-75
2021/04/08 06:15:44;;;;;;;10.95;7.60;;;;;;;;;;5040871;28;20029;-75
2021/04/08 06:18:10;;;;;;;13.30;7.57;;;;;;;;;;5026921;28;20014;-75
2021/04/08 06:20:35;;;;;;;13.23;6.95;;;;;;;;;;5031306;28;20056;-75
2021/04/08 06:23:03;;;;;;;15.93;7.57;;;;;;;;;;5030121;28;20392;-75
2021/04/08 06:25:28;;;;;;;11.93;7.03;;;;;;;;;;5023345;28;20029;-75
2021/04/08 06:27:54;;;;;;;12.77;6.68;;;;;;;;;;5023315;28;20018;-75
2021/04/08 06:30:20;;;;;;;16.52;7.40;;;;;;;;;;5025291;28;20121;-76
2021/04/08 06:32:45;;;;;;;12.18;7.05;;;;;;;;;;5030410;28;20022;-76
2021/04/08 06:35:11;;;;;;;13.45;7.00;;;;;;;;;;5027929;28;20026;-76
2021/04/08 06:37:37;;;;;;;9.43;6.45;;;;;;;;;;5002960;28;20070;-76
2021/04/08 06:40:05;;;;;;;10.10;6.40;;;;;;;;;;5031992;28;20060;-76
2021/04/08 06:42:33;;;;;;;12.27;6.68;;;;;;;;;;5039350;28;20049;-76
2021/04/08 06:45:01;;;;;;;12.75;6.25;;;;;;;;;;5028271;28;20055;-76
2021/04/08 06:47:32;;;;;;;14.55;6.70;;;;;;;;;;5029425;28;21016;-74
2021/04/08 06:50:04;;;;;;;14.32;7.13;;;;;;;;;;5022395;28;20377;-75
2021/04/08 06:52:29;;;;;;;12.18;6.80;;;;;;;;;;5023421;28;20079;-76
2021/04/08 06:54:56;;;;;;;11.98;6.88;;;;;;;;;;5029716;28;20440;-75
2021/04/08 06:57:22;;;;;;;10.65;6.30;;;;;;;;;;5025703;28;20021;-75
2021/04/08 06:59:48;;;;;;;9.77;6.28;;;;;;;;;;5024799;28;20037;-75
2021/04/08 07:02:19;;;;;;;9.90;6.10;;;;;;;;;;5022591;28;20504;-75
2021/04/08 07:04:45;;;;;;;;;;;;;;;;;;5031781;28;20032;-76
2021/04/08 07:07:10;;;;;;;11.98;6.40;;;;;;;;;;5038467;28;19913;-76
2021/04/08 07:09:36;;;;;;;8.95;6.28;;;;;;;;;;5033196;28;20056;-76
2021/04/08 07:12:02;;;;;;;13.55;7.20;;;;;;;;;;5024335;28;20431;-76
2021/04/08 07:14:28;;;;;;;11.82;6.05;;;;;;;;;;5033876;28;20025;-76
2021/04/08 07:16:54;;;;;;;11.85;6.20;;;;;;;;;;5039023;28;20564;-75
2021/04/08 07:19:20;;;;;;;11.05;6.18;;;;;;;;;;5034803;28;20104;-75
2021/04/08 07:21:45;;;;;;;13.48;6.65;;;;;;;;;;5037742;28;20397;-76
2021/04/08 07:24:16;;;;;;;14.38;6.88;;;;;;;;;;5027232;28;20439;-76
2021/04/08 07:27:02;;;;;;;12.73;8.68;;;;;;;;;;5023045;28;20029;-76
2021/04/08 07:29:40;;;;;;;14.18;7.45;;;;;;;;;;5031167;28;20030;-76
2021/04/08 07:32:13;;;;;;;13.43;7.03;;;;;;;;;;5021639;28;20025;-76
2021/04/08 07:34:46;;;;;;;13.52;6.10;;;;;;;;;;5023168;28;20128;-76
2021/04/08 07:37:13;;;;;;;13.07;7.13;;;;;;;;;;5021052;28;20112;-76
2021/04/08 07:39:45;;;;;;;12.48;6.05;;;;;;;;;;5039945;28;20037;-76
2021/04/08 07:42:19;;;;;;;10.30;6.82;;;;;;;;;;5040508;28;20076;-76
2021/04/08 07:44:48;;;;;;;14.13;6.90;;;;;;;;;;5038840;28;20033;-75
2021/04/08 07:47:28;;;;;;;12.98;6.35;;;;;;;;;;5026034;28;20029;-75
2021/04/08 07:50:10;;;;;;;10.75;6.28;;;;;;;;;;5033443;28;20029;-75
2021/04/08 07:52:43;;;;;;;8.77;6.07;;;;;;;;;;5021447;28;20048;-75
2021/04/08 07:55:16;;;;;;;10.73;6.25;;;;;;;;;;5025001;28;20128;-76
2021/04/08 07:58:06;;;;;;;11.45;5.88;;;;;;;;;;5027742;28;20591;-76
2021/04/08 08:00:34;;;;;;;10.05;5.68;;;;;;;;;;5022864;28;20033;-76
2021/04/08 08:03:08;;;;;;;8.95;5.63;;;;;;;;;;5019484;28;20030;-76
2021/04/08 08:05:41;;;;;;;12.95;5.53;;;;;;;;;;5024928;28;20451;-76
2021/04/08 08:08:12;;;;;;;20.02;8.45;;;;;;;;;;5025337;28;20041;-76
2021/04/08 08:10:40;;;;;;;11.23;6.85;;;;;;;;;;5038248;28;20091;-76
2021/04/08 08:13:28;;;;;;;12.57;6.85;;;;;;;;;;5029142;28;20511;-76
2021/04/08 08:15:59;;;;;;;10.90;6.93;;;;;;;;;;5025904;28;20047;-76
2021/04/08 08:18:29;;;;;;;13.85;6.78;;;;;;;;;;5029974;28;20474;-76
2021/04/08 08:21:11;;;;;;;14.23;7.25;;;;;;;;;;5016459;28;20143;-76
2021/04/08 08:23:50;;;;;;;11.30;6.15;;;;;;;;;;5026713;28;20037;-75
2021/04/08 08:26:33;;;;;;;11.18;5.90;;;;;;;;;;5024680;28;20033;-76
2021/04/08 08:29:10;;;;;;;12.85;6.10;;;;;;;;;;5032895;28;20033;-76
2021/04/08 08:31:40;;;;;;;10.02;5.45;;;;;;;;;;5020543;28;20112;-76
2021/04/08 08:34:09;;;;;;;10.95;5.97;;;;;;;;;;5000824;28;20060;-76
2021/04/08 08:36:36;;;;;;;9.57;5.80;;;;;;;;;;5028950;28;20113;-76
2021/04/08 08:39:05;;;;;;;10.23;5.72;;;;;;;;;;5032081;28;20029;-76
2021/04/08 08:41:32;;;;;;;12.80;6.45;;;;;;;;;;5031391;28;20515;-76
2021/04/08 08:43:58;;;;;;;11.63;6.68;;;;;;;;;;5029113;28;20056;-76
2021/04/08 08:46:25;;;;;;;11.60;6.18;;;;;;;;;;5027641;28;20034;-76
2021/04/08 08:48:56;;;;;;;11.25;7.20;;;;;;;;;;5030101;28;20029;-75
2021/04/08 08:51:22;;;;;;;9.40;5.75;;;;;;;;;;5021593;28;20477;-76
2021/04/08 08:53:51;;;;;;;13.82;6.85;;;;;;;;;;5030848;28;20469;-76
2021/04/08 08:56:18;;;;;;;7.90;6.25;;;;;;;;;;5027994;28;20036;-76
2021/04/08 08:58:43;;;;;;;8.38;5.50;;;;;;;;;;5023982;28;20030;-76
2021/04/08 09:01:09;;;;;;;10.23;5.28;;;;;;;;;;5018402;28;20509;-76
2021/04/08 09:03:34;;;;;;;10.43;4.65;;;;;;;;;;5031280;28;20043;-76
2021/04/08 09:06:05;;;;;;;7.20;4.82;;;;;;;;;;5028282;28;20089;-76
2021/04/08 09:08:32;;;;;;;9.05;4.82;;;;;;;;;;5026504;28;20033;-76
2021/04/08 09:10:57;;;;;;;11.10;4.43;;;;;;;;;;5026297;28;20037;-76
2021/04/08 09:13:23;;;;;;;5.68;4.18;;;;;;;;;;5029318;28;20076;-76
2021/04/08 09:15:49;;;;;;;7.15;3.70;;;;;;;;;;5027371;28;20047;-76
2021/04/08 09:18:20;;;;;;;7.80;4.05;;;;;;;;;;5028062;28;20029;-76
2021/04/08 09:20:47;;;;;;;6.78;4.70;;;;;;;;;;5011970;28;20030;-76
2021/04/08 09:23:17;;;;;;;8.30;4.35;;;;;;;;;;5025988;28;20429;-76
2021/04/08 09:25:45;;;;;;;5.82;3.85;;;;;;;;;;5020855;28;20029;-76
2021/04/08 09:28:13;;;;;;;7.47;4.55;;;;;;;;;;5019629;28;20025;-76
2021/04/08 09:30:43;;;;;;;6.50;4.10;;;;;;;;;;5024031;28;20497;-76
2021/04/08 09:33:10;;;;;;;6.67;4.13;;;;;;;;;;5022681;28;20026;-76
2021/04/08 09:35:36;;;;;;;8.75;3.70;;;;;;;;;;5016072;28;20327;-76
2021/04/08 09:38:02;;;;;;;10.80;5.80;;;;;;;;;;5024031;28;20037;-76
2021/04/08 09:40:33;;;;;;;6.18;4.30;;;;;;;;;;5022430;28;20086;-76
2021/04/08 09:43:19;;;;;;;6.03;4.20;;;;;;;;;;5023252;28;20468;-76
2021/04/08 09:46:08;;;;;;;6.38;4.05;;;;;;;;;;5009899;28;20087;-76
2021/04/08 09:48:48;;;;;;;8.02;3.42;;;;;;;;;;5029333;28;20075;-76
2021/04/08 09:51:35;;;;;;;5.82;3.10;;;;;;;;;;5026404;28;20025;-75
2021/04/08 09:54:09;;;;;;;4.30;2.67;;;;;;;;;;5028305;28;20116;-76
2021/04/08 09:56:55;;;;;;;3.85;2.60;;;;;;;;;;5027215;28;20285;-76
2021/04/08 09:59:22;;;;;;;6.97;2.78;;;;;;;;;;5029977;28;20473;-76
2021/04/08 10:01:48;;;;;;;5.65;2.65;;;;;;;;;;5009744;28;20100;-76
2021/04/08 10:04:22;;;;;;;5.18;2.97;;;;;;;;;;5022829;28;20100;-76
2021/04/08 10:06:59;;;;;;;6.72;2.65;;;;;;;;;;5028185;28;20025;-76
2021/04/08 10:09:24;;;;;;;4.60;2.47;;;;;;;;;;5022018;28;20100;-76
2021/04/08 10:11:50;;;;;;;4.63;2.58;;;;;;;;;;5019659;28;20104;-76
2021/04/08 10:14:19;;;;;;;3.03;2.38;;;;;;;;;;5023203;28;20033;-77
2021/04/08 10:16:58;;;;;;;4.85;2.55;;;;;;;;;;5029544;28;20038;-76
2021/04/08 10:19:38;;;;;;;3.53;2.28;;;;;;;;;;5023715;28;20022;-76
2021/04/08 10:22:05;;;;;;;10.65;9.68;;;;;;;;;;5027905;28;20029;-76
2021/04/08 10:24:35;;;;;;;10.70;9.70;;;;;;;;;;5027207;28;20021;-76
2021/04/08 10:27:01;;;;;;;4.03;2.67;;;;;;;;;;5016454;28;20077;-76
2021/04/08 10:29:33;;;;;;;5.05;2.55;;;;;;;;;;5013208;28;20028;-76
2021/04/08 10:31:59;;;;;;;3.55;2.58;;;;;;;;;;5018940;28;20044;-76
2021/04/08 10:34:33;;;;;;;3.20;2.25;;;;;;;;;;5024102;28;20445;-76
2021/04/08 10:36:58;;;;;;;3.85;2.53;;;;;;;;;;5012951;28;20049;-76
2021/04/08 10:39:30;;;;;;;4.68;2.50;;;;;;;;;;5019453;28;20060;-76
2021/04/08 10:41:56;;;;;;;3.95;2.20;;;;;;;;;;5027261;28;20029;-76
2021/04/08 10:44:29;;;;;;;3.80;2.30;;;;;;;;;;5029547;28;20041;-76
2021/04/08 10:46:56;;;;;;;4.05;2.10;;;;;;;;;;5032560;28;20032;-76
2021/04/08 10:49:26;;;;;;;3.03;2.10;;;;;;;;;;5025855;28;20137;-76
2021/04/08 10:51:53;;;;;;;5.10;2.10;;;;;;;;;;5027006;28;20029;-76
2021/04/08 10:54:19;;;;;;;5.18;2.42;;;;;;;;;;5023570;28;20033;-76
2021/04/08 10:56:49;;;;;;;2.83;2.40;;;;;;;;;;5021585;28;20025;-76
2021/04/08 10:59:21;;;;;;;6.13;2.33;;;;;;;;;;5013346;28;20517;-76
2021/04/08 11:01:48;;;;;;;3.72;2.40;;;;;;;;;;5032353;28;20026;-76
2021/04/08 11:04:13;;;;;;;4.22;2.35;;;;;;;;;;5032305;28;20032;-76
2021/04/08 11:06:39;;;;;;;4.70;2.40;;;;;;;;;;5032138;28;20389;-76
2021/04/08 11:09:05;;;;;;;7.63;4.70;;;;;;;;;;5031990;28;20021;-76
2021/04/08 11:11:31;;;;;;;4.18;2.42;;;;;;;;;;5032250;28;20097;-76
2021/04/08 11:13:57;;;;;;;3.60;2.50;;;;;;;;;;5031472;28;20569;-76
2021/04/08 11:16:25;;;;;;;3.53;2.47;;;;;;;;;;5032073;28;20033;-76
2021/04/08 11:18:51;;;;;;;2.95;2.25;;;;;;;;;;5032329;28;20029;-76
2021/04/08 11:21:17;;;;;;;5.18;2.85;;;;;;;;;;5032012;28;20104;-76
2021/04/08 11:23:42;;;;;;;6.25;2.20;;;;;;;;;;5031799;28;20132;-76
2021/04/08 11:26:08;;;;;;;8.00;2.47;;;;;;;;;;5031918;28;20517;-75
2021/04/08 11:28:41;;;;;;;7.18;5.00;;;;;;;;;;5031766;28;20021;-78
2021/04/08 11:31:18;;;;;;;2.88;2.15;;;;;;;;;;5032122;28;20029;-77
2021/04/08 11:33:43;;;;;;;6.95;2.30;;;;;;;;;;5032074;28;20057;-76
2021/04/08 11:36:17;;;;;;;3.72;2.10;;;;;;;;;;5028932;28;20057;-76
2021/04/08 11:38:42;;;;;;;3.50;2.20;;;;;;;;;;5008246;28;20120;-76
2021/04/08 11:41:09;;;;;;;4.90;2.22;;;;;;;;;;5021569;28;20121;-76
2021/04/08 11:43:55;;;;;;;5.88;2.40;;;;;;;;;;5020220;28;20053;-77
2021/04/08 11:46:25;;;;;;;7.32;2.78;;;;;;;;;;5025754;28;20501;-76
2021/04/08 11:48:50;;;;;;;3.30;2.05;;;;;;;;;;5017407;28;20478;-76
2021/04/08 11:51:20;;;;;;;5.18;2.80;;;;;;;;;;5016489;28;20053;-76
2021/04/08 11:53:46;;;;;;;2.63;1.90;;;;;;;;;;5020464;28;20037;-76
2021/04/08 11:56:32;;;;;;;3.15;2.38;;;;;;;;;;5023829;28;20417;-75
2021/04/08 11:59:13;;;;;;;4.45;2.00;;;;;;;;;;5020513;28;20032;-76
2021/04/08 12:01:43;;;;;;;4.13;2.00;;;;;;;;;;5023265;28;20040;-76
2021/04/08 12:04:22;;;;;;;4.88;2.30;;;;;;;;;;5028463;28;20028;-77
2021/04/08 12:06:53;;;;;;;7.97;2.10;;;;;;;;;;5029704;28;20064;-76
2021/04/08 12:09:44;;;;;;;2.90;1.83;;;;;;;;;;5027505;28;20486;-76
2021/04/08 12:12:11;;;;;;;4.40;2.65;;;;;;;;;;5024241;28;20120;-75
2021/04/08 12:14:58;;;;;;;5.70;2.30;;;;;;;;;;5024046;28;20033;-76
2021/04/08 12:17:26;;;;;;;6.22;2.20;;;;;;;;;;5002290;28;20025;-75
2021/04/08 12:19:51;;;;;;;4.05;1.77;;;;;;;;;;5020380;28;20076;-76
2021/04/08 12:22:17;;;;;;;2.65;1.77;;;;;;;;;;5029662;28;20489;-76
2021/04/08 12:25:11;;;;;;;2.45;1.88;;;;;;;;;;5021448;28;20029;-75
2021/04/08 12:27:38;;;;;;;3.22;1.80;;;;;;;;;;5023751;28;20025;-77
2021/04/08 12:30:06;;;;;;;3.00;1.80;;;;;;;;;;5030837;28;20026;-78
2021/04/08 12:32:32;;;;;;;3.55;1.83;;;;;;;;;;5031039;28;20025;-75
2021/04/08 12:34:58;;;;;;;2.42;1.95;;;;;;;;;;5006027;28;20030;-76
2021/04/08 12:37:23;;;;;;;2.92;1.75;;;;;;;;;;5030111;28;20044;-76
2021/04/08 12:39:49;;;;;;;4.18;1.77;;;;;;;;;;5029845;28;20037;-76
2021/04/08 12:42:15;;;;;;;2.47;1.77;;;;;;;;;;5024494;28;20468;-76
2021/04/08 12:44:40;;;;;;;2.70;1.70;;;;;;;;;;5024937;28;20100;-76
2021/04/08 12:47:07;;;;;;;2.35;1.38;;;;;;;;;;5031606;28;20580;-76
2021/04/08 12:49:32;;;;;;;2.70;1.58;;;;;;;;;;5027405;28;20057;-75
2021/04/08 12:51:57;;;;;;;2.88;1.70;;;;;;;;;;5023730;28;20457;-76
2021/04/08 12:54:23;;;;;;;5.30;1.85;;;;;;;;;;5027384;28;20434;-75
2021/04/08 12:56:49;;;;;;;3.08;1.70;;;;;;;;;;5022395;28;20501;-78
2021/04/08 12:59:14;;;;;;;2.85;1.50;;;;;;;;;;5027914;28;20108;-76
2021/04/08 13:01:39;;;;;;;3.75;1.52;;;;;;;;;;5017344;28;20033;-78
2021/04/08 13:04:05;;;;;;;3.28;1.80;;;;;;;;;;5020000;28;20029;-75
2021/04/08 13:06:30;;;;;;;3.42;1.85;;;;;;;;;;5029006;28;20034;-75
2021/04/08 13:08:56;;;;;;;7.13;2.67;;;;;;;;;;5030110;28;20025;-77
2021/04/08 13:11:23;;;;;;;2.88;1.70;;;;;;;;;;5029472;28;20025;-78
2021/04/08 13:13:48;;;;;;;2.80;1.63;;;;;;;;;;5029492;28;20087;-77
2021/04/08 13:16:14;;;;;;;3.13;1.70;;;;;;;;;;5025663;28;20433;-75
2021/04/08 13:18:39;;;;;;;2.60;1.70;;;;;;;;;;5020778;28;20037;-78
2021/04/08 13:21:06;;;;;;;3.15;1.83;;;;;;;;;;5027036;28;20025;-76
2021/04/08 13:23:32;;;;;;;5.82;1.83;;;;;;;;;;5022569;28;20474;-78
2021/04/08 13:25:57;;;;;;;2.80;1.67;;;;;;;;;;5029835;28;20040;-77
2021/04/08 13:28:23;;;;;;;3.53;1.48;;;;;;;;;;5031661;28;20026;-77
2021/04/08 13:30:48;;;;;;;2.45;1.83;;;;;;;;;;5024199;28;20485;-77
2021/04/08 13:33:14;;;;;;;3.30;1.60;;;;;;;;;;5019641;28;20025;-77
2021/04/08 13:35:42;;;;;;;4.43;1.63;;;;;;;;;;5022268;28;20674;-76
2021/04/08 13:38:08;;;;;;;8.15;1.38;;;;;;;;;;5029817;28;20021;-77
2021/04/08 13:40:33;;;;;;;5.32;1.65;;;;;;;;;;5013736;28;20026;-79
2021/04/08 13:42:59;;;;;;;2.67;1.60;;;;;;;;;;5027532;28;20501;-77
2021/04/08 13:45:25;;;;;;;2.88;1.35;;;;;;;;;;5019785;28;20030;-78
2021/04/08 13:47:50;;;;;;;2.17;1.55;;;;;;;;;;5031987;28;20026;-77
2021/04/08 13:50:16;;;;;;;2.55;1.38;;;;;;;;;;5031708;28;20037;-76
2021/04/08 13:52:42;;;;;;;4.05;1.48;;;;;;;;;;5005200;28;20029;-77
2021/04/08 13:55:11;;;;;;;4.00;1.30;;;;;;;;;;5023772;28;20492;-78
2021/04/08 13:57:37;;;;;;;3.47;1.25;;;;;;;;;;5022856;28;20481;-78
2021/04/08 14:00:07;;;;;;;9.48;1.80;;;;;;;;;;5024323;28;20086;-79
2021/04/08 14:02:32;;;;;;;3.88;2.38;;;;;;;;;;5019750;28;20029;-79
2021/04/08 14:05:03;;;;;;;4.63;1.23;;;;;;;;;;5028393;28;20041;-78
2021/04/08 14:07:29;;;;;;;2.45;0.90;;;;;;;;;;5019865;28;20465;-79
2021/04/08 14:09:54;;;;;;;1.70;0.90;;;;;;;;;;5022447;28;20129;-78
2021/04/08 14:12:20;;;;;;;2.53;0.90;;;;;;;;;;5029060;28;20465;-79
2021/04/08 14:14:45;;;;;;;1.20;0.90;;;;;;;;;;5024347;28;20504;-79
2021/04/08 14:17:10;;;;;;;0.57;0.50;;;;;;;;;;5025198;28;20682;-76
2021/04/08 14:19:36;;;;;;;1.90;0.50;;;;;;;;;;5027700;28;20425;-80
2021/04/08 14:22:01;;;;;;;0.75;0.40;;;;;;;;;;5027982;28;20473;-78
2021/04/08 14:24:27;;;;;;;0.98;0.50;;;;;;;;;;5021555;28;20116;-78
2021/04/08 14:27:00;;;;;;;0.82;0.63;;;;;;;;;;5025657;28;20037;-78
2021/04/08 14:29:26;;;;;;;0.70;0.60;;;;;;;;;;5026957;28;20026;-78
2021/04/08 14:31:53;;;;;;;0.90;0.60;;;;;;;;;;5026107;28;20136;-78
2021/04/08 14:34:21;;;;;;;0.73;0.60;;;;;;;;;;5005618;28;20123;-79
2021/04/08 14:36:47;;;;;;;0.55;0.55;;;;;;;;;;5021432;28;20029;-78
2021/04/08 14:39:15;;;;;;;0.50;0.50;;;;;;;;;;5026262;28;20389;-78
2021/04/08 14:41:41;;;;;;;1.15;0.63;;;;;;;;;;5019046;28;20037;-78
2021/04/08 14:44:06;;;;;;;0.60;0.60;;;;;;;;;;5024847;28;20482;-79
2021/04/08 14:46:32;;;;;;;0.73;0.60;;;;;;;;;;5017701;28;20112;-79